Airfield :
LOGIN :

Register | Disclaimer

   EN    FR    IT 

 










Legend :    VFR   Marginal VFR   IFR   Intensive IFR   Very Intensive IFR
Visi :
Ceiling :
>= 8 km
>= 3000ft
5 to 8 km
1000 to 3000 ft
1500m to 5 km
500 to 1000 ft
800 to 1500m
200 to 500 ft
< 800m
< 200 ft
Symbols :   Thunderstorms  Fog  Heavy snow  Heavy precipitations  Wind > 20 kt
SIGMETs :     Misc.  Thunderstorms  Icing  Turbulence  Mountain Waves  Volcanic Ashes







- Airport Elevation : 1416 ft
- IATA code : ZRH


LSZH - Zurich

CURRENT METAR :
  • 221250Z VRB05KT 9999 SCT060 20/06 Q1024 NOSIG

EXPIRED METARs :
  • 221220Z VRB05KT 9999 FEW060 19/04 Q1024 NOSIG
  • 221150Z 28006KT 240V350 9999 FEW060 19/04 Q1024 NOSIG
  • 221120Z 25004KT 170V340 9999 FEW060 19/03 Q1024 NOSIG
  • 221050Z VRB04KT 9999 FEW060 18/01 Q1025 NOSIG
  • 221020Z VRB04KT 9999 FEW035 17/01 Q1025 NOSIG

TAF TAF LSZH
Valid from the 22 at 12:00 until the 23 at 18:00 UTC


221125Z 2212/2318 VRB03KT 9999 FEW060 TX20/2215Z TN07/2304Z TX21/2315Z
PROB40
TEMPO 2212/2217 34010KT
BECMG 2218/2220 03005KT
BECMG 2304/2307 CAVOK
BECMG 2310/2313 9999 FEW050
ATIS : +41 43 816 2295 (DEP) +41 43 816 2294 (ARR)
No reported NOTAMs for that airfield.



MET'MAP, your aeronautical weather chart ! - Copyright ORBIFLY December 2007 - Disclaimer

ORBIFLY MET'MAP TEAM :

Programming & Development : Alexandra Zaïnal
Concept & Development : Baudouin d'Aumeries
Co-Development & Prog : Marc-Olivier Méhu
Technical & hardware support : Manuel Goepfert

Contact : metmap@orbifly.com




SOURCES & CREDITS :

   NOAA